createdAt,value
2023-04-01T00:00:23.471Z,1.15
2023-04-01T00:03:27.754Z,0.90
2023-04-01T00:06:30.816Z,1.17
2023-04-01T00:09:33.044Z,0.95
2023-04-01T00:12:35.652Z,1.17
2023-04-01T00:15:37.925Z,1.08
2023-04-01T00:18:40.363Z,1.60
2023-04-01T00:21:42.656Z,0.98
2023-04-01T00:24:44.849Z,1.45
2023-04-01T00:27:47.039Z,1.57
2023-04-01T00:30:49.270Z,1.40
2023-04-01T00:33:52.609Z,1.65
2023-04-01T00:36:55.194Z,1.52
2023-04-01T00:39:57.910Z,1.50
2023-04-01T00:43:00.645Z,1.80
2023-04-01T00:46:02.863Z,1.45
2023-04-01T00:49:05.137Z,1.90
2023-04-01T00:52:09.213Z,1.42
2023-04-01T00:55:12.533Z,1.50
2023-04-01T00:58:17.883Z,1.60
2023-04-01T01:01:21.419Z,1.50
2023-04-01T01:04:33.990Z,1.40
2023-04-01T01:07:41.878Z,1.90
2023-04-01T01:10:48.347Z,1.75
2023-04-01T01:13:57.882Z,1.43
2023-04-01T01:17:08.095Z,1.80
2023-04-01T01:20:30.511Z,2.03
2023-04-01T01:24:05.618Z,1.60
2023-04-01T01:27:09.973Z,1.98
2023-04-01T01:30:18.220Z,1.80
2023-04-01T01:33:28.361Z,1.42
2023-04-01T01:36:35.127Z,1.65
2023-04-01T01:39:39.796Z,2.67
2023-04-01T01:42:44.780Z,1.70
2023-04-01T01:45:52.814Z,1.90
2023-04-01T01:48:56.268Z,1.88
2023-04-01T01:51:58.875Z,2.38
2023-04-01T01:55:01.259Z,2.08
2023-04-01T01:58:45.662Z,1.92
2023-04-01T02:01:51.844Z,2.40
2023-04-01T02:04:55.696Z,2.30
2023-04-01T02:08:04.328Z,1.70
2023-04-01T02:11:08.004Z,1.58
2023-04-01T02:14:19.267Z,2.25
2023-04-01T02:17:23.168Z,2.23
2023-04-01T02:20:28.976Z,1.67
2023-04-01T02:23:32.996Z,2.05
2023-04-01T02:26:36.019Z,2.05
2023-04-01T02:29:38.470Z,2.17
2023-04-01T02:32:43.573Z,2.50
2023-04-01T02:35:45.967Z,2.00
2023-04-01T02:38:49.661Z,2.50
2023-04-01T02:41:51.991Z,2.38
2023-04-01T02:44:54.202Z,1.83
2023-04-01T02:47:56.417Z,2.17
2023-04-01T02:50:58.876Z,2.45
2023-04-01T02:54:01.274Z,2.13
2023-04-01T02:57:04.118Z,2.30
2023-04-01T03:00:12.107Z,2.40
2023-04-01T03:03:14.740Z,2.13
2023-04-01T03:06:17.421Z,1.55
2023-04-01T03:09:20.059Z,2.00
2023-04-01T03:12:22.528Z,1.38
2023-04-01T03:15:27.013Z,1.45
2023-04-01T03:18:30.646Z,1.40
2023-04-01T03:21:33.407Z,2.03
2023-04-01T03:24:36.597Z,1.83
2023-04-01T03:27:38.839Z,1.88
2023-04-01T03:30:41.445Z,1.30
2023-04-01T03:33:44.891Z,1.77
2023-04-01T03:36:47.156Z,1.60
2023-04-01T03:39:49.433Z,1.73
2023-04-01T03:42:51.698Z,1.73
2023-04-01T03:45:55.569Z,1.58
2023-04-01T03:48:57.886Z,1.40
2023-04-01T03:52:00.111Z,1.77
2023-04-01T03:55:02.736Z,1.83
2023-04-01T03:58:06.674Z,1.85
2023-04-01T04:01:17.039Z,1.33
2023-04-01T04:04:19.270Z,1.70
2023-04-01T04:07:21.688Z,1.73
2023-04-01T04:10:39.569Z,1.67
2023-04-01T04:13:41.905Z,1.92
2023-04-01T04:16:44.099Z,1.17
2023-04-01T04:19:46.414Z,1.43
2023-04-01T04:22:49.180Z,1.83
2023-04-01T04:26:02.412Z,1.17
2023-04-01T04:29:05.453Z,1.25
2023-04-01T04:32:07.866Z,1.35
2023-04-01T04:35:10.911Z,1.60
2023-04-01T04:38:13.522Z,1.40
2023-04-01T04:41:16.448Z,1.48
2023-04-01T04:44:20.863Z,1.48
2023-04-01T04:47:23.082Z,1.23
2023-04-01T04:50:25.997Z,1.93
2023-04-01T04:53:28.618Z,1.52
2023-04-01T04:56:31.794Z,1.63
2023-04-01T04:59:41.183Z,1.33
2023-04-01T05:02:54.873Z,1.90
2023-04-01T05:05:57.377Z,1.70
2023-04-01T05:09:00.051Z,1.60
2023-04-01T05:12:02.451Z,1.98
2023-04-01T05:15:13.715Z,2.35
2023-04-01T05:18:16.319Z,2.08
2023-04-01T05:21:18.538Z,2.43
2023-04-01T05:24:20.883Z,2.22
2023-04-01T05:27:23.812Z,2.50
2023-04-01T05:30:26.074Z,2.58
2023-04-01T05:33:42.846Z,2.47
2023-04-01T05:36:45.468Z,2.50
2023-04-01T05:39:47.687Z,1.90
2023-04-01T05:42:49.925Z,2.30
2023-04-01T05:45:52.988Z,2.38
2023-04-01T05:49:09.791Z,2.03
2023-04-01T05:52:12.552Z,2.47
2023-04-01T05:55:14.896Z,1.77
2023-04-01T05:58:17.156Z,1.92
2023-04-01T06:01:22.388Z,1.85
2023-04-01T06:04:25.734Z,2.17
2023-04-01T06:07:28.611Z,1.87
2023-04-01T06:10:40.571Z,2.42
2023-04-01T06:14:03.814Z,1.40
2023-04-01T06:17:18.528Z,1.50
2023-04-01T06:20:31.390Z,0.95
2023-04-01T06:23:39.933Z,0.87
2023-04-01T06:26:44.067Z,1.10
2023-04-01T06:30:03.289Z,1.00
2023-04-01T06:33:24.340Z,1.10
2023-04-01T06:36:29.673Z,0.75
2023-04-01T06:39:50.992Z,0.50
2023-04-01T06:42:58.369Z,0.63
2023-04-01T06:46:25.103Z,0.80
2023-04-01T06:49:57.654Z,0.60
2023-04-01T06:53:44.368Z,0.50
2023-04-01T06:57:17.869Z,0.40
2023-04-01T07:00:31.243Z,0.70
2023-04-01T07:03:37.080Z,0.57
2023-04-01T07:06:44.381Z,0.30
2023-04-01T07:15:17.356Z,0.43
2023-04-01T07:18:22.973Z,0.40
2023-04-01T07:21:48.752Z,0.47
2023-04-01T07:25:02.638Z,0.40
2023-04-01T07:28:06.609Z,0.40
2023-04-01T07:31:16.312Z,0.60
2023-04-01T07:34:29.384Z,0.70
2023-04-01T07:37:39.273Z,0.45
2023-04-01T07:41:00.495Z,0.40
2023-04-01T07:44:09.676Z,0.75
2023-04-01T07:47:11.857Z,0.40
2023-04-01T07:50:28.784Z,0.57
2023-04-01T07:53:34.608Z,0.50
2023-04-01T07:56:46.835Z,0.50
2023-04-01T08:00:00.810Z,0.40
2023-04-01T08:03:30.689Z,0.37
2023-04-01T08:06:36.553Z,0.40
2023-04-01T08:09:40.243Z,0.43
2023-04-01T08:13:21.924Z,0.70
2023-04-01T08:17:10.462Z,0.68
2023-04-01T08:20:35.699Z,0.40
2023-04-01T08:23:39.776Z,0.50
2023-04-01T08:26:46.197Z,0.60
2023-04-01T08:29:54.227Z,0.65
2023-04-01T08:33:02.660Z,0.50
2023-04-01T08:36:11.544Z,0.60
2023-04-01T08:39:21.499Z,0.43
2023-04-01T08:42:25.551Z,0.65
2023-04-01T08:46:18.703Z,0.68
2023-04-01T08:49:33.517Z,0.40
2023-04-01T08:52:36.152Z,0.43
2023-04-01T08:55:39.818Z,0.60
2023-04-01T08:58:53.063Z,0.40
2023-04-01T09:02:05.899Z,0.38
2023-04-01T09:05:38.040Z,0.40
2023-04-01T09:08:43.309Z,0.30
2023-04-01T09:12:09.019Z,0.35
2023-04-01T09:15:21.878Z,0.30
2023-04-01T09:18:36.963Z,0.30
2023-04-01T09:21:39.224Z,0.30
2023-04-01T09:24:54.307Z,0.30
2023-04-01T09:28:17.447Z,0.45
2023-04-01T09:31:22.864Z,0.40
2023-04-01T09:35:09.950Z,0.40
2023-04-01T09:38:27.792Z,0.40
2023-04-01T09:41:30.063Z,0.30
2023-04-01T09:44:58.048Z,0.50
2023-04-01T09:48:20.691Z,0.70
2023-04-01T09:51:26.026Z,0.60
2023-04-01T09:54:38.428Z,0.40
2023-04-01T09:57:59.560Z,0.60
2023-04-01T10:01:41.419Z,0.40
2023-04-01T10:05:06.912Z,0.47
2023-04-01T10:08:28.516Z,0.22
2023-04-01T10:11:30.766Z,0.50
2023-04-01T10:14:33.322Z,0.40
2023-04-01T10:17:55.876Z,0.50
2023-04-01T10:21:04.304Z,0.70
2023-04-01T10:24:10.605Z,0.60
2023-04-01T10:27:34.930Z,0.60
2023-04-01T10:30:46.171Z,0.30
2023-04-01T10:34:13.825Z,0.70
2023-04-01T10:37:34.988Z,0.80
2023-04-01T10:40:50.566Z,0.82
2023-04-01T10:44:29.896Z,0.57
2023-04-01T10:47:52.985Z,0.50
2023-04-01T10:51:14.745Z,0.63
2023-04-01T10:54:20.138Z,0.45
2023-04-01T10:58:03.967Z,0.80
2023-04-01T11:01:46.033Z,0.90
2023-04-01T11:05:10.973Z,0.67
2023-04-01T11:08:54.874Z,0.70
2023-04-01T11:12:03.162Z,0.75
2023-04-01T11:15:09.811Z,0.63
2023-04-01T11:18:18.021Z,0.70
2023-04-01T11:21:20.395Z,1.00
2023-04-01T11:24:33.656Z,0.85
2023-04-01T11:27:57.017Z,0.77
2023-04-01T11:30:59.958Z,0.82
2023-04-01T11:34:09.044Z,1.20
2023-04-01T11:37:20.595Z,0.57
2023-04-01T11:40:42.670Z,0.55
2023-04-01T11:44:12.735Z,0.65
2023-04-01T11:47:30.766Z,0.47
2023-04-01T11:50:52.806Z,0.60
2023-04-01T11:54:07.488Z,0.77
2023-04-01T11:57:18.739Z,0.52
2023-04-01T12:00:56.745Z,0.50
2023-04-01T12:03:59.207Z,0.30
2023-04-01T12:07:13.573Z,0.40
2023-04-01T12:10:25.532Z,0.40
2023-04-01T12:13:30.242Z,0.50
2023-04-01T12:16:45.856Z,0.93
2023-04-01T12:20:07.055Z,0.45
2023-04-01T12:23:21.490Z,0.40
2023-04-01T12:26:42.228Z,0.50
2023-04-01T12:30:10.966Z,0.60
2023-04-01T12:33:18.729Z,0.70
2023-04-01T12:36:27.017Z,0.50
2023-04-01T12:39:35.378Z,0.60
2023-04-01T12:42:37.665Z,0.60
2023-04-01T12:46:00.187Z,0.52
2023-04-01T12:49:16.907Z,0.50
2023-04-01T12:52:22.384Z,0.70
2023-04-01T12:55:30.937Z,0.40
2023-04-01T12:58:36.257Z,0.40
2023-04-01T13:01:59.112Z,0.68
2023-04-01T13:05:21.415Z,0.43
2023-04-01T13:08:42.483Z,0.20
2023-04-01T13:11:53.882Z,0.40
2023-04-01T13:14:56.043Z,0.47
2023-04-01T13:17:58.300Z,0.30
2023-04-01T13:21:19.255Z,0.32
2023-04-01T13:24:40.300Z,0.30
2023-04-01T13:27:44.407Z,0.50
2023-04-01T13:30:52.713Z,0.40
2023-04-01T13:34:05.846Z,0.32
2023-04-01T13:37:11.060Z,0.30
2023-04-01T13:40:28.385Z,0.45
2023-04-01T13:43:42.875Z,0.40
2023-04-01T13:46:58.454Z,0.50
2023-04-01T13:50:11.227Z,0.57
2023-04-01T13:53:22.944Z,0.40
2023-04-01T13:56:40.612Z,0.40
2023-04-01T14:00:11.987Z,0.35
2023-04-01T14:03:33.786Z,0.40
2023-04-01T14:06:36.120Z,0.50
2023-04-01T14:09:46.029Z,0.55
2023-04-01T14:12:48.277Z,0.40
2023-04-01T14:15:59.694Z,0.45
2023-04-01T14:19:30.005Z,0.60
2023-04-01T14:22:35.291Z,0.68
2023-04-01T14:25:38.061Z,0.60
2023-04-01T14:28:43.574Z,0.50
2023-04-01T14:32:04.643Z,0.40
2023-04-01T14:35:19.284Z,0.30
2023-04-01T14:38:27.084Z,0.30
2023-04-01T14:41:41.346Z,0.40
2023-04-01T14:44:58.627Z,0.30
2023-04-01T14:48:06.779Z,0.47
2023-04-01T14:51:21.959Z,0.23
2023-04-01T14:54:44.717Z,0.30
2023-04-01T14:57:59.326Z,0.40
2023-04-01T15:01:07.694Z,0.30
2023-04-01T15:04:30.596Z,0.38
2023-04-01T15:07:45.049Z,0.30
2023-04-01T15:10:50.683Z,0.40
2023-04-01T15:13:52.860Z,0.38
2023-04-01T15:17:27.489Z,0.60
2023-04-01T15:20:38.319Z,0.63
2023-04-01T15:23:54.986Z,0.50
2023-04-01T15:26:57.148Z,0.47
2023-04-01T15:30:17.870Z,0.30
2023-04-01T15:33:20.097Z,0.30
2023-04-01T15:36:28.323Z,0.30
2023-04-01T15:39:49.198Z,0.30
2023-04-01T15:42:54.432Z,0.70
2023-04-01T15:45:56.814Z,0.40
2023-04-01T15:49:18.260Z,0.30
2023-04-01T15:52:24.180Z,0.35
2023-04-01T15:55:37.795Z,0.40
2023-04-01T15:58:41.077Z,0.30
2023-04-01T16:01:49.488Z,0.43
2023-04-01T16:04:58.302Z,0.30
2023-04-01T16:08:00.479Z,0.45
2023-04-01T16:11:13.402Z,0.20
2023-04-01T16:14:27.938Z,0.60
2023-04-01T16:17:47.391Z,0.20
2023-04-01T16:20:52.654Z,0.38
2023-04-01T16:24:00.711Z,0.25
2023-04-01T16:27:12.887Z,0.37
2023-04-01T16:30:18.172Z,0.50
2023-04-01T16:33:29.116Z,0.50
2023-04-01T16:36:37.566Z,0.40
2023-04-01T16:39:49.088Z,0.50
2023-04-01T16:42:57.147Z,0.40
2023-04-01T16:46:10.504Z,0.40
2023-04-01T16:49:12.886Z,0.38
2023-04-01T16:52:16.666Z,0.32
2023-04-01T16:55:19.975Z,0.30
2023-04-01T16:58:34.703Z,0.30
2023-04-01T17:01:44.435Z,0.38
2023-04-01T17:04:48.838Z,0.30
2023-04-01T17:08:16.276Z,0.30
2023-04-01T17:11:19.843Z,0.40
2023-04-01T17:14:31.576Z,0.30
2023-04-01T17:17:49.302Z,0.30
2023-04-01T17:20:51.669Z,0.43
2023-04-01T17:23:59.549Z,0.30
2023-04-01T17:27:08.053Z,0.50
2023-04-01T17:30:26.098Z,0.30
2023-04-01T17:33:28.295Z,0.40
2023-04-01T17:36:42.794Z,0.40
2023-04-01T17:40:03.961Z,0.40
2023-04-01T17:43:09.375Z,0.43
2023-04-01T17:46:20.793Z,0.40
2023-04-01T17:49:43.507Z,0.52
2023-04-01T17:53:10.467Z,0.60
2023-04-01T17:56:20.161Z,0.57
2023-04-01T17:59:25.331Z,0.65
2023-04-01T18:02:46.597Z,0.60
2023-04-01T18:06:08.864Z,0.60
2023-04-01T18:09:30.051Z,0.50
2023-04-01T18:13:09.405Z,0.82
2023-04-01T18:16:18.042Z,0.60
2023-04-01T18:19:20.580Z,0.50
2023-04-01T18:22:39.537Z,0.63
2023-04-01T18:25:43.630Z,0.40
2023-04-01T18:28:53.692Z,0.50
2023-04-01T18:32:07.080Z,0.50
2023-04-01T18:35:18.672Z,0.60
2023-04-01T18:38:32.542Z,0.50
2023-04-01T18:41:53.577Z,0.47
2023-04-01T18:45:08.052Z,0.50
2023-04-01T18:48:29.048Z,0.60
2023-04-01T18:51:34.463Z,0.60
2023-04-01T18:54:46.074Z,0.30
2023-04-01T18:57:51.711Z,0.43
2023-04-01T19:01:03.724Z,0.65
2023-04-01T19:04:09.130Z,0.80
2023-04-01T19:07:30.329Z,0.80
2023-04-01T19:10:33.040Z,0.60
2023-04-01T19:13:49.308Z,0.77
2023-04-01T19:17:12.090Z,1.00
2023-04-01T19:20:17.536Z,0.70
2023-04-01T19:23:28.129Z,0.83
2023-04-01T19:26:36.367Z,1.02
2023-04-01T19:29:57.524Z,0.77
2023-04-01T19:33:09.086Z,0.90
2023-04-01T19:36:11.817Z,0.65
2023-04-01T19:39:23.131Z,1.03
2023-04-01T19:42:45.344Z,1.10
2023-04-01T19:46:00.960Z,0.52
2023-04-01T19:49:07.541Z,1.00
2023-04-01T19:52:13.005Z,0.95
2023-04-01T19:55:23.310Z,1.30
2023-04-01T19:58:40.571Z,1.27
2023-04-01T20:01:50.086Z,1.20
2023-04-01T20:04:55.618Z,1.20
2023-04-01T20:08:16.696Z,1.20
2023-04-01T20:11:37.807Z,1.17
2023-04-01T20:14:43.171Z,1.55
2023-04-01T20:17:47.195Z,1.23
2023-04-01T20:20:55.080Z,1.67
2023-04-01T20:24:01.003Z,1.33
2023-04-01T20:27:15.155Z,1.20
2023-04-01T20:30:47.719Z,1.30
2023-04-01T20:34:08.916Z,1.38
2023-04-01T20:37:11.309Z,1.40
2023-04-01T20:40:16.636Z,1.13
2023-04-01T20:43:39.144Z,1.43
2023-04-01T20:46:50.330Z,1.30
2023-04-01T20:50:01.711Z,1.30
2023-04-01T20:53:03.892Z,1.00
2023-04-01T20:56:15.490Z,1.10
2023-04-01T20:59:17.780Z,0.87
2023-04-01T21:02:20.115Z,1.20
2023-04-01T21:05:33.120Z,1.38
2023-04-01T21:08:38.596Z,1.45
2023-04-01T21:11:53.984Z,1.30
2023-04-01T21:14:59.757Z,1.13
2023-04-01T21:18:11.363Z,1.25
2023-04-01T21:21:16.344Z,1.02
2023-04-01T21:24:33.602Z,1.20
2023-04-01T21:27:56.525Z,1.73
2023-04-01T21:30:59.534Z,1.10
2023-04-01T21:34:15.039Z,1.52
2023-04-01T21:37:28.163Z,1.33
2023-04-01T21:40:30.426Z,1.45
2023-04-01T21:43:41.133Z,1.33
2023-04-01T21:47:03.602Z,1.40
2023-04-01T21:50:08.848Z,1.55
2023-04-01T21:53:30.039Z,1.10
2023-04-01T21:56:51.165Z,1.20
2023-04-01T22:00:12.584Z,1.70
2023-04-01T22:03:33.082Z,1.40
2023-04-01T22:06:52.540Z,1.05
2023-04-01T22:10:14.219Z,1.58
2023-04-01T22:13:19.786Z,1.60
2023-04-01T22:16:28.681Z,1.20
2023-04-01T22:19:41.482Z,1.40
2023-04-01T22:23:04.097Z,0.82
2023-04-01T22:26:06.278Z,1.05
2023-04-01T22:29:17.357Z,0.93
2023-04-01T22:32:29.520Z,1.00
2023-04-01T22:35:31.951Z,0.90
2023-04-01T22:38:56.808Z,1.05
2023-04-01T22:42:03.633Z,0.60
2023-04-01T22:45:24.384Z,0.68
2023-04-01T22:48:29.409Z,0.50
2023-04-01T22:51:41.454Z,0.50
2023-04-01T22:54:46.434Z,0.57
2023-04-01T22:57:53.341Z,0.70
2023-04-01T23:00:57.956Z,0.70
2023-04-01T23:04:00.856Z,0.98
2023-04-01T23:07:05.031Z,0.70
2023-04-01T23:10:13.122Z,0.80
2023-04-01T23:13:21.483Z,0.95
2023-04-01T23:16:33.223Z,1.15
2023-04-01T23:19:53.391Z,0.70
2023-04-01T23:22:58.562Z,0.60
2023-04-01T23:26:00.788Z,1.38
2023-04-01T23:29:03.173Z,0.82
2023-04-01T23:32:05.671Z,0.77
2023-04-01T23:35:13.240Z,0.57
2023-04-01T23:38:16.355Z,0.80
2023-04-01T23:41:21.539Z,0.80
2023-04-01T23:44:25.473Z,0.50
2023-04-01T23:47:31.049Z,0.73
2023-04-01T23:50:33.358Z,0.38
2023-04-01T23:53:35.583Z,0.90
2023-04-01T23:56:57.111Z,0.50
